GCC Virtual Airport Information Service

Newcastle Airport

ICAO: EGNT Country: GB
Latitude: 55.0375 Longitude: -1.69167
Latest Arrival : UAE35 (OMDB-EGNT) Latest Departure : (-)


WX CaptureLIVE
Data provided by noaa.gov | Fetched at 07:41:56

METAR : EGNT 270720Z 27005KT 9999 BKN006 05/04 Q1007

TAF : EGNT 270458Z 2706/2806 27010KT 9999 OVC004 BECMG 2706/2709 VRB03KT SCT009 TEMPO 2706/2709 4000 DZ BR TEMPO 2709/2712 6000 BKN009 PROB30 TEMPO 2712/2718 7000 SHRA BKN008 TEMPO 2802/2806 6000 RA BKN008 BECMG 2803/2806 10010KT PROB30 TEMPO 2803/2806 4000 RADZ BKN004


Runway Data for EGNT
Data provided by openaviationdata.com

Runway ID Mag Var Hdg Length Elevation Surface ILS Freq ILS Id ILS Slope
7 2 62° 7818 ft 266 ft Asphalt 111.5 INC 3
25 2 242° 7818 ft 266 ft Asphalt 111.5 INWC 3

Newcastle Airport, GB
Use only for reference purposes



Not for navigational purposes.